Time;durP1;ratioP1;P1;durP2;ratioP2;P2;SDS_P1;SDS_P2;PMS_P1;PMS_P2;Temp;Humidity;BMP_temperature;BMP_pressure;BME280_temperature;BME280_humidity;BME280_pressure;Samples;Min_cycle;Max_cycle;Signal;HPM_P1;HPM_P2
2022/05/09 00:09:26;;;;;;;2.43;1.50;;;;;;;;;;20880179;28;20277;-65
2022/05/09 00:19:28;;;;;;;4.40;1.60;;;;;;;;;;20863089;28;20211;-65
2022/05/09 00:29:29;;;;;;;1.80;1.40;;;;;;;;;;20862233;28;20495;-65
2022/05/09 00:39:33;;;;;;;2.63;1.40;;;;;;;;;;20861398;28;20272;-65
2022/05/09 00:49:43;;;;;;;3.13;1.33;;;;;;;;;;20890086;22;20226;-68
2022/05/09 00:59:47;;;;;;;1.77;1.10;;;18.30;99.90;;;;;;20891869;28;20219;-68
2022/05/09 01:09:51;;;;;;;1.80;1.10;;;;;;;;;;20843688;28;20295;-68
2022/05/09 01:19:55;;;;;;;1.80;1.10;;;;;;;;;;20858118;28;20219;-68
2022/05/09 01:30:00;;;;;;;2.70;0.90;;;;;;;;;;20858295;28;20701;-68
2022/05/09 01:40:01;;;;;;;1.30;0.80;;;;;;;;;;20857101;28;20206;-68
2022/05/09 01:50:03;;;;;;;1.27;1.00;;;18.10;99.90;;;;;;20855618;28;20283;-68
2022/05/09 02:00:06;;;;;;;1.60;0.80;;;;;;;;;;20854653;28;20197;-68
2022/05/09 02:10:16;;;;;;;2.70;0.90;;;;;;;;;;20857091;28;20692;-68
2022/05/09 02:20:19;;;;;;;2.73;1.30;;;;;;;;;;20870247;28;20287;-68
2022/05/09 02:30:21;;;;;;;1.40;1.00;;;;;;;;;;20869426;28;20303;-68
2022/05/09 02:40:26;;;;;;;1.90;0.97;;;;;;;;;;20853798;28;20637;-68
2022/05/09 02:50:28;;;;;;;2.03;1.20;;;;;;;;;;20852857;28;20213;-68
2022/05/09 03:00:30;;;;;;;1.87;1.10;;;;;;;;;;20853054;28;20677;-68
2022/05/09 03:10:32;;;;;;;1.40;1.00;;;;;;;;;;20859006;28;20307;-68
2022/05/09 03:20:36;;;;;;;2.27;1.00;;;;;;;;;;20867762;28;20239;-68
2022/05/09 03:30:38;;;;;;;1.70;1.00;;;17.00;99.90;;;;;;20866348;28;20222;-68
2022/05/09 03:40:41;;;;;;;1.63;1.10;;;;;;;;;;20879929;28;20755;-68
2022/05/09 03:50:43;;;;;;;1.73;1.10;;;;;;;;;;20905047;28;20709;-68
2022/05/09 04:00:47;;;;;;;1.73;0.90;;;;;;;;;;20911574;28;20225;-68
2022/05/09 04:10:50;;;;;;;2.47;1.20;;;;;;;;;;20945130;28;20282;-68
2022/05/09 04:20:52;;;;;;;1.83;1.00;;;16.60;99.90;;;;;;20961056;28;20239;-69
2022/05/09 04:30:54;;;;;;;1.70;1.17;;;16.00;99.90;;;;;;20944794;28;20251;-69
2022/05/09 04:40:58;;;;;;;1.87;1.10;;;;;;;;;;20911667;28;20209;-69
2022/05/09 04:50:59;;;;;;;1.70;1.20;;;;;;;;;;20942421;28;20591;-68
2022/05/09 05:01:01;;;;;;;3.03;1.53;;;;;;;;;;20958490;28;20205;-68
2022/05/09 05:11:06;;;;;;;2.67;1.00;;;;;;;;;;20957591;28;20568;-69
2022/05/09 05:21:10;;;;;;;2.10;1.30;;;16.70;99.90;;;;;;20940620;28;20271;-69
2022/05/09 05:31:16;;;;;;;2.90;1.40;;;;;;;;;;20938686;28;20221;-68
2022/05/09 05:41:22;;;;;;;1.67;0.90;;;17.00;99.90;;;;;;20878126;28;20276;-69
2022/05/09 05:51:24;;;;;;;1.97;1.13;;;;;;;;;;20840203;28;20287;-69
2022/05/09 06:01:26;;;;;;;1.63;1.20;;;;;;;;;;20946157;28;20232;-69
2022/05/09 06:11:28;;;;;;;3.93;1.40;;;;;;;;;;20933874;28;20220;-69
2022/05/09 06:21:33;;;;;;;1.43;1.17;;;;;;;;;;20935650;28;20209;-70
2022/05/09 06:31:36;;;;;;;5.93;1.33;;;;;;;;;;20935273;28;20286;-70
2022/05/09 06:41:38;;;;;;;2.80;1.47;;;;;;;;;;20933845;28;20204;-70
2022/05/09 06:51:40;;;;;;;1.87;1.13;;;;;;;;;;20942883;22;20225;-69
2022/05/09 07:01:42;;;;;;;2.27;1.30;;;;;;;;;;20947741;28;20745;-69
2022/05/09 07:11:45;;;;;;;2.30;1.27;;;;;;;;;;20960966;28;20238;-69
2022/05/09 07:21:47;;;;;;;2.00;1.30;;;;;;;;;;20959608;28;20205;-69
2022/05/09 07:31:49;;;;;;;3.07;1.80;;;;;;;;;;20947647;28;20229;-69
2022/05/09 07:41:51;;;;;;;2.83;1.53;;;;;;;;;;20931518;28;20234;-69
2022/05/09 07:51:52;;;;;;;2.97;1.67;;;;;;;;;;20931534;28;20249;-69
2022/05/09 08:01:54;;;;;;;3.30;1.60;;;;;;;;;;20945455;28;20701;-69
2022/05/09 08:11:58;;;;;;;2.53;1.73;;;;;;;;;;20945863;28;20218;-69
2022/05/09 08:22:00;;;;;;;2.80;1.80;;;;;;;;;;20945181;28;20202;-69
2022/05/09 08:32:02;;;;;;;3.67;2.00;;;;;;;;;;20928142;28;20227;-69
2022/05/09 08:42:07;;;;;;;4.20;1.80;;;20.90;99.90;;;;;;20960489;28;20702;-69
2022/05/09 08:52:09;;;;;;;2.60;1.90;;;;;;;;;;20943136;28;20215;-69
2022/05/09 09:02:14;;;;;;;3.40;1.97;;;;;;;;;;20942706;28;20690;-69
2022/05/09 09:12:21;;;;;;;3.67;2.10;;;;;;;;;;20941583;28;20224;-69
2022/05/09 09:22:54;;;;;;;3.23;1.87;;;22.10;99.90;;;;;;20941244;28;20266;-69
2022/05/09 09:33:01;;;;;;;3.10;2.30;;;;;;;;;;20972488;28;20283;-70
2022/05/09 09:43:02;;;;;;;4.33;2.17;;;;;;;;;;20923831;28;20216;-70
2022/05/09 09:53:04;;;;;;;3.13;2.17;;;;;;;;;;20938993;28;20219;-70
2022/05/09 10:03:38;;;;;;;4.07;2.80;;;22.90;99.90;;;;;;20939068;28;20264;-70
2022/05/09 10:13:47;;;;;;;2.63;2.00;;;23.50;99.90;;;;;;20941140;28;20223;-70
2022/05/09 10:34:17;;;;;;;3.17;2.33;;;;;;;;;;20953722;28;20279;-70
2022/05/09 10:44:19;;;;;;;2.38;1.90;;;;;;;;;;20920947;28;20270;-70
2022/05/09 10:54:39;;;;;;;7.28;3.40;;;24.50;99.90;;;;;;20936501;28;20223;-70
2022/05/09 11:04:41;;;;;;;4.25;2.00;;;;;;;;;;20969325;28;20206;-69
2022/05/09 11:15:15;;;;;;;3.35;2.10;;;;;;;;;;20919689;28;20250;-70
2022/05/09 11:25:17;;;;;;;2.85;1.98;;;;;;;;;;20893856;28;20240;-70
2022/05/09 11:35:34;;;;;;;2.47;1.65;;;25.10;99.90;;;;;;20945770;28;20203;-70
2022/05/09 11:45:58;;;;;;;2.03;1.30;;;25.10;99.90;;;;;;20965453;28;20577;-70
2022/05/09 11:56:05;;;;;;;2.30;1.65;;;25.30;99.90;;;;;;20948463;28;20708;-70
2022/05/09 12:06:11;;;;;;;1.85;1.60;;;;;;;;;;20947469;28;20214;-69
2022/05/09 12:16:35;;;;;;;1.98;1.42;;;25.80;99.90;;;;;;20963621;28;20211;-70
2022/05/09 12:26:38;;;;;;;1.80;1.20;;;;;;;;;;20962475;28;20578;-70
2022/05/09 12:36:39;;;;;;;1.35;1.00;;;;;;;;;;20945481;28;20207;-69
2022/05/09 12:46:46;;;;;;;2.05;1.33;;;;;;;;;;20944117;28;20218;-70
2022/05/09 12:56:56;;;;;;;2.50;1.08;;;;;;;;;;20933897;23;20286;-67
2022/05/09 13:07:04;;;;;;;1.60;1.15;;;;;;;;;;20859066;28;20281;-70
2022/05/09 13:17:33;;;;;;;2.55;1.17;;;27.10;94.40;;;;;;20858127;28;20287;-70
2022/05/09 13:27:37;;;;;;;2.20;1.13;;;26.80;97.20;;;;;;20874055;28;20228;-70
2022/05/09 13:37:41;;;;;;;2.28;1.08;;;;;;;;;;20872808;28;20224;-70
2022/05/09 13:47:47;;;;;;;2.10;1.02;;;26.40;91.20;;;;;;20872323;28;20242;-70
2022/05/09 13:57:51;;;;;;;3.05;0.82;;;;;;;;;;20855664;28;20769;-70
2022/05/09 14:07:56;;;;;;;1.35;0.90;;;;;;;;;;20871400;28;20232;-69
2022/05/09 14:18:04;;;;;;;1.30;0.80;;;;;;;;;;20854648;28;20217;-70
2022/05/09 14:38:34;;;;;;;1.85;0.80;;;;;;;;;;20870149;28;20243;-68
2022/05/09 14:48:38;;;;;;;1.20;0.80;;;27.60;90.50;;;;;;20853410;28;20714;-67
2022/05/09 14:58:43;;;;;;;2.80;1.00;;;27.70;92.90;;;;;;20852626;28;20711;-68
2022/05/09 15:08:46;;;;;;;1.45;0.68;;;;;;;;;;20863020;28;20228;-68
2022/05/09 15:18:48;;;;;;;1.25;1.10;;;;;;;;;;20867700;28;20633;-68
2022/05/09 15:28:52;;;;;;;0.90;0.75;;;27.70;81.80;;;;;;20883784;28;20241;-69
2022/05/09 15:38:54;;;;;;;0.88;0.73;;;;;;;;;;20881712;28;20274;-68
2022/05/09 15:48:58;;;;;;;1.08;0.73;;;27.70;89.70;;;;;;20866360;28;20213;-68
2022/05/09 15:59:01;;;;;;;1.77;0.70;;;27.40;86.30;;;;;;20880700;28;20232;-68
2022/05/09 16:19:27;;;;;;;1.80;1.20;;;;;;;;;;20888583;28;20224;-67
2022/05/09 16:29:29;;;;;;;1.75;1.10;;;;;;;;;;20902369;28;20257;-66
2022/05/09 16:39:43;;;;;;;1.83;1.08;;;;;;;;;;20871474;28;20274;-67
2022/05/09 16:49:45;;;;;;;1.98;1.10;;;;;;;;;;20870554;28;20228;-66
2022/05/09 16:59:48;;;;;;;1.50;1.00;;;;;;;;;;20873298;28;20217;-68
2022/05/09 17:09:49;;;;;;;2.15;0.90;;;;;;;;;;20880750;28;20242;-67
2022/05/09 17:19:51;;;;;;;1.25;0.90;;;;;;;;;;20891000;28;20752;-69
2022/05/09 17:29:53;;;;;;;1.23;0.90;;;;;;;;;;20858083;28;20225;-67
2022/05/09 17:39:56;;;;;;;2.28;1.02;;;;;;;;;;20878933;28;20227;-67
2022/05/09 17:50:00;;;;;;;1.73;0.82;;;;;;;;;;20934754;28;20212;-68
2022/05/09 18:00:02;;;;;;;1.02;0.63;;;;;;;;;;20916779;28;20224;-67
2022/05/09 18:10:05;;;;;;;1.45;0.85;;;25.40;95.90;;;;;;20920337;28;20761;-67
2022/05/09 18:20:12;;;;;;;1.60;1.10;;;;;;;;;;20927740;28;20208;-67
2022/05/09 18:30:15;;;;;;;1.83;1.00;;;;;;;;;;20921452;28;20597;-67
2022/05/09 18:40:17;;;;;;;3.65;1.05;;;;;;;;;;20947272;28;20231;-67
2022/05/09 19:00:41;;;;;;;1.48;0.82;;;;;;;;;;20888828;23;20243;-68
2022/05/09 19:10:47;;;;;;;1.50;0.90;;;;;;;;;;20875234;28;20727;-68
2022/05/09 19:20:50;;;;;;;2.22;1.02;;;24.50;99.90;;;;;;20874272;28;20223;-68
2022/05/09 19:30:52;;;;;;;2.63;1.02;;;;;;;;;;20867492;28;20353;-68
2022/05/09 19:40:55;;;;;;;2.33;1.15;;;;;;;;;;20845686;28;20753;-70
2022/05/09 19:51:01;;;;;;;2.17;1.08;;;;;;;;;;20863485;28;20235;-68
2022/05/09 20:01:05;;;;;;;3.33;1.27;;;;;;;;;;20863474;28;20228;-68
2022/05/09 20:11:12;;;;;;;1.58;1.13;;;23.60;99.90;;;;;;20850079;28;20277;-68
2022/05/09 20:21:16;;;;;;;3.70;1.38;;;23.50;99.90;;;;;;20863127;28;20312;-68
2022/05/09 20:31:22;;;;;;;4.57;1.38;;;;;;;;;;20849453;28;20280;-68
2022/05/09 20:41:24;;;;;;;3.05;1.40;;;;;;;;;;20850395;28;20660;-67
2022/05/09 20:51:26;;;;;;;4.80;1.60;;;;;;;;;;20853522;28;20227;-68
2022/05/09 21:01:28;;;;;;;1.85;1.20;;;;;;;;;;20868454;28;20555;-68
2022/05/09 21:11:31;;;;;;;3.53;1.15;;;;;;;;;;20868434;28;20236;-70
2022/05/09 21:21:33;;;;;;;2.78;1.30;;;;;;;;;;20851260;28;20621;-68
2022/05/09 21:31:35;;;;;;;2.83;1.40;;;;;;;;;;20866618;28;20572;-68
2022/05/09 21:41:38;;;;;;;2.15;1.10;;;22.70;99.90;;;;;;20849786;28;20205;-68
2022/05/09 21:51:40;;;;;;;2.45;1.20;;;;;;;;;;20849032;28;20212;-68
2022/05/09 22:01:42;;;;;;;3.50;1.33;;;;;;;;;;20863717;28;20236;-68
2022/05/09 22:11:44;;;;;;;3.38;1.33;;;;;;;;;;20864375;28;20239;-68
2022/05/09 22:21:50;;;;;;;3.00;1.45;;;;;;;;;;20879069;28;20268;-68
2022/05/09 22:31:53;;;;;;;2.00;1.42;;;21.70;99.90;;;;;;20846307;28;20225;-68
2022/05/09 22:41:57;;;;;;;2.35;1.52;;;21.40;99.90;;;;;;20868626;28;20569;-68
2022/05/09 22:51:59;;;;;;;2.15;1.55;;;;;;;;;;20853870;28;20220;-69
2022/05/09 23:02:00;;;;;;;2.65;1.70;;;;;;;;;;20854027;28;20230;-68
2022/05/09 23:12:03;;;;;;;2.50;1.50;;;21.20;99.90;;;;;;20853449;28;20640;-68
2022/05/09 23:22:05;;;;;;;2.45;1.55;;;;;;;;;;20836804;28;20686;-67
2022/05/09 23:32:07;;;;;;;3.65;1.83;;;20.90;99.90;;;;;;20866022;28;20227;-67
2022/05/09 23:42:10;;;;;;;2.50;1.80;;;;;;;;;;20851515;28;20279;-67
2022/05/09 23:52:12;;;;;;;2.63;1.70;;;;;;;;;;20865920;28;20224;-67
